TAF and METAR

Could not understand the following METAR

YPPD 280500Z AUTO 35015KT 9999 // NCD 30/20 Q1012

TAF for Port Hedland International Airport

TAF AMD YPPD 280505Z 2805/2900 34014KT CAVOK FM281000 29008KT 9999 SCT018 FM281500 26007KT 9999 FEW010 FM282100 26005KT 9999 SCT010
Report created 28. okt 06:05

between 28. okt 06:00 - 29. okt 01:00

wind 14 knots from NNW (340°) Clear sky

From 28. okt 11:00

wind 8 knots from WNW (290°) visibility > 10km scattered clouds (~50% cover) at 1800 feet

From 28. okt 16:00

wind 7 knots from W (260°) visibility > 10km some clouds (~25% cover) at 1000 feet

From 28. okt 22:00

wind 5 knots from W (260°) visibility > 10km scattered clouds (~50% cover) at 1000 feet
Port Hedland International Airport in Australia at 6m

Latest 5 airports